Time;durP1;ratioP1;P1;durP2;ratioP2;P2;SDS_P1;SDS_P2;PMS_P1;PMS_P2;Temp;Humidity;BMP_temperature;BMP_pressure;BME280_temperature;BME280_humidity;BME280_pressure;Samples;Min_cycle;Max_cycle;Signal;HPM_P1;HPM_P2
2023/01/25 00:00:16;;;;;;;36.47;21.10;;;;;;;-0.04;100.00;103769.91;10476635;28;20028;-81
2023/01/25 00:05:16;;;;;;;36.67;21.97;;;;;;;-0.12;100.00;103765.06;10504201;28;20118;-81
2023/01/25 00:10:17;;;;;;;40.03;22.47;;;;;;;-0.26;100.00;103760.63;10503723;28;20037;-82
2023/01/25 00:15:17;;;;;;;39.67;21.70;;;;;;;-0.26;100.00;103755.22;10502893;28;20049;-81
2023/01/25 00:20:18;;;;;;;41.40;23.33;;;;;;;-0.26;100.00;103749.81;10503608;28;20037;-83
2023/01/25 00:25:18;;;;;;;42.50;21.83;;;;;;;-0.28;100.00;103751.75;10504731;28;20093;-81
2023/01/25 00:30:19;;;;;;;47.40;22.10;;;;;;;-0.32;100.00;103746.69;10503126;28;20036;-81
2023/01/25 00:35:19;;;;;;;37.47;20.57;;;;;;;-0.32;100.00;103750.25;10498784;28;20037;-79
2023/01/25 00:40:20;;;;;;;42.03;23.95;;;;;;;-0.30;100.00;103759.13;10457009;28;20041;-81
2023/01/25 00:45:20;;;;;;;42.03;22.40;;;;;;;-0.33;100.00;103748.53;10459997;28;20040;-82
2023/01/25 00:50:21;;;;;;;41.13;23.42;;;;;;;-0.33;100.00;103743.13;10462328;28;20044;-82
2023/01/25 00:55:22;;;;;;;45.03;24.47;;;;;;;-0.35;100.00;103742.38;10491887;28;20033;-81
2023/01/25 01:00:22;;;;;;;41.00;23.00;;;;;;;-0.42;100.00;103724.84;10499635;28;20037;-81
2023/01/25 01:05:22;;;;;;;49.30;26.17;;;;;;;-0.36;100.00;103737.06;10461889;28;20520;-81
2023/01/25 01:10:23;;;;;;;49.07;26.07;;;;;;;-0.37;100.00;103722.69;10485468;28;20036;-81
2023/01/25 01:15:23;;;;;;;44.38;24.77;;;;;;;-0.43;100.00;103729.41;10479557;28;20477;-81
2023/01/25 01:20:24;;;;;;;48.30;25.10;;;;;;;-0.67;100.00;103691.44;10491456;28;20094;-78
2023/01/25 01:25:24;;;;;;;44.13;22.87;;;;;;;-0.56;100.00;103716.84;10482730;28;20095;-80
2023/01/25 01:30:25;;;;;;;47.17;23.50;;;;;;;-0.62;100.00;103715.44;10460560;28;20056;-81
2023/01/25 01:35:25;;;;;;;47.50;24.03;;;;;;;-0.64;100.00;103712.88;10463934;28;20063;-82
2023/01/25 01:40:26;;;;;;;48.20;24.83;;;;;;;-0.75;100.00;103707.34;10483582;28;20037;-81
2023/01/25 01:45:48;;;;;;;45.30;23.80;;;;;;;-0.78;100.00;103710.28;10500067;28;20045;-81
2023/01/25 01:50:51;;;;;;;47.77;25.27;;;;;;;-0.79;100.00;103703.13;10496696;28;20161;-81
2023/01/25 01:55:52;;;;;;;47.47;25.33;;;;;;;-0.82;100.00;103697.97;10461456;28;20036;-83
2023/01/25 02:00:52;;;;;;;47.03;24.37;;;;;;;-0.78;100.00;103695.91;10482902;28;20032;-82
2023/01/25 02:06:04;;;;;;;51.37;27.20;;;;;;;-0.71;100.00;103692.63;10486094;28;20041;-82
2023/01/25 02:11:04;;;;;;;48.38;24.17;;;;;;;-0.69;100.00;103693.38;10483876;28;20036;-83
2023/01/25 02:16:05;;;;;;;51.30;26.43;;;;;;;-0.70;100.00;103686.25;10478976;28;20627;-84
2023/01/25 02:21:05;;;;;;;45.33;24.20;;;;;;;-0.80;100.00;103668.97;10459014;28;20407;-83
2023/01/25 02:26:06;;;;;;;48.30;25.23;;;;;;;-0.75;100.00;103683.00;10482337;28;20037;-83
2023/01/25 02:31:06;;;;;;;49.13;24.80;;;;;;;-0.73;100.00;103677.50;10498017;28;20094;-83
2023/01/25 02:36:06;;;;;;;43.17;24.40;;;;;;;-0.73;100.00;103662.13;10464945;28;20033;-83
2023/01/25 02:41:10;;;;;;;48.63;24.53;;;;;;;-0.80;100.00;103657.28;10498283;28;20459;-82
2023/01/25 02:46:14;;;;;;;52.20;26.50;;;;;;;-0.75;100.00;103661.34;10481077;28;20033;-83
2023/01/25 02:51:14;;;;;;;50.03;25.93;;;;;;;-0.73;100.00;103647.72;10492260;28;20037;-83
2023/01/25 02:56:15;;;;;;;51.47;26.40;;;;;;;-0.87;100.00;103641.50;10495560;28;20509;-83
2023/01/25 03:01:16;;;;;;;51.27;26.30;;;;;;;-0.77;100.00;103649.78;10497231;28;20062;-82
2023/01/25 03:06:16;;;;;;;52.60;26.37;;;;;;;-0.74;100.00;103641.47;10499344;28;20418;-84
2023/01/25 03:11:17;;;;;;;53.53;27.20;;;;;;;-0.76;100.00;103637.16;10496593;28;20120;-83
2023/01/25 03:16:17;;;;;;;50.97;26.80;;;;;;;-0.76;100.00;103632.59;10492962;28;20041;-83
2023/01/25 03:21:18;;;;;;;51.67;26.10;;;;;;;-0.76;100.00;103635.31;10455375;28;20104;-83
2023/01/25 03:26:20;;;;;;;49.17;26.75;;;;;;;-0.77;100.00;103614.63;10456146;28;20384;-81
2023/01/25 03:31:20;;;;;;;52.50;26.50;;;;;;;-0.85;100.00;103606.19;10430207;28;20056;-82
2023/01/25 03:36:20;;;;;;;55.27;27.10;;;;;;;-0.94;100.00;103586.09;10496538;28;20032;-79
2023/01/25 03:41:21;;;;;;;53.17;28.20;;;;;;;-0.95;100.00;103584.38;10495026;28;20056;-82
2023/01/25 03:46:21;;;;;;;52.75;28.77;;;;;;;-1.04;100.00;103574.22;10497556;28;20040;-83
2023/01/25 03:51:22;;;;;;;54.47;28.03;;;;;;;-0.97;100.00;103586.34;10490666;28;20044;-84
2023/01/25 03:56:22;;;;;;;54.27;28.33;;;;;;;-1.01;100.00;103584.84;10493956;28;20048;-83
2023/01/25 04:01:23;;;;;;;56.07;30.07;;;;;;;-1.08;100.00;103584.38;10495798;28;20048;-82
2023/01/25 04:06:23;;;;;;;53.83;28.67;;;;;;;-0.99;100.00;103592.81;10495822;28;20079;-82
2023/01/25 04:11:24;;;;;;;56.43;29.20;;;;;;;-1.08;100.00;103573.56;10495494;28;20044;-83
2023/01/25 04:16:24;;;;;;;56.47;28.60;;;;;;;-0.99;100.00;103580.19;10485107;28;20060;-83
2023/01/25 04:21:25;;;;;;;53.53;28.23;;;;;;;-0.92;100.00;103588.69;10474968;28;20048;-83
2023/01/25 04:26:25;;;;;;;63.03;31.93;;;;;;;-0.94;100.00;103579.84;10490194;28;20142;-75
2023/01/25 04:31:25;;;;;;;56.57;29.00;;;;;;;-0.98;100.00;103573.78;10505290;28;20559;-83
2023/01/25 04:36:26;;;;;;;56.70;29.67;;;;;;;-0.97;100.00;103574.63;10504798;28;20032;-83
2023/01/25 04:41:28;;;;;;;63.75;31.33;;;;;;;-1.03;100.00;103544.38;10503253;28;20024;-83
2023/01/25 04:46:28;;;;;;;58.33;29.80;;;;;;;-0.97;100.00;103553.88;10462455;28;20051;-83
2023/01/25 04:51:28;;;;;;;62.70;31.10;;;;;;;-1.07;100.00;103548.28;10467732;28;20044;-83
2023/01/25 04:56:29;;;;;;;57.57;28.70;;;;;;;-1.15;100.00;103539.88;10502966;28;20046;-83
2023/01/25 05:01:32;;;;;;;55.37;29.37;;;;;;;-1.13;100.00;103543.31;10503577;28;20036;-82
2023/01/25 05:06:32;;;;;;;56.33;29.40;;;;;;;-1.17;100.00;103546.38;10503822;28;20120;-83
2023/01/25 05:11:33;;;;;;;57.17;29.50;;;;;;;-1.25;100.00;103541.50;10501185;28;20056;-83
2023/01/25 05:16:33;;;;;;;56.00;30.97;;;;;;;-1.26;100.00;103531.66;10481330;28;20593;-82
2023/01/25 05:26:59;;;;;;;55.40;29.90;;;;;;;-1.23;100.00;103553.94;10502910;28;20104;-83
2023/01/25 05:31:59;;;;;;;61.72;31.08;;;;;;;-1.25;100.00;103552.31;10502019;28;20036;-82
2023/01/25 05:37:00;;;;;;;61.27;31.77;;;;;;;-1.24;100.00;103554.03;10481519;28;20029;-82
2023/01/25 05:42:01;;;;;;;62.10;31.83;;;;;;;-1.26;100.00;103556.88;10461674;28;20040;-82
2023/01/25 05:47:01;;;;;;;64.03;32.47;;;;;;;-1.27;100.00;103551.56;10460056;28;20041;-83
2023/01/25 05:52:01;;;;;;;60.70;28.63;;;;;;;-1.77;100.00;103465.06;10460679;28;20041;-82
2023/01/25 05:57:02;;;;;;;69.20;34.47;;;;;;;-1.24;100.00;103546.81;10500044;28;20028;-82
2023/01/25 06:02:03;;;;;;;65.17;31.30;;;;;;;-1.31;100.00;103545.50;10490887;28;20044;-83
2023/01/25 06:07:03;;;;;;;62.27;31.23;;;;;;;-1.39;100.00;103541.63;10498389;28;20368;-83
2023/01/25 06:12:05;;;;;;;60.87;29.47;;;;;;;-1.35;100.00;103548.53;10498377;28;20043;-81
2023/01/25 06:17:06;;;;;;;66.20;32.50;;;;;;;-1.31;100.00;103542.81;10498132;28;20052;-82
2023/01/25 06:22:08;;;;;;;64.83;31.37;;;;;;;-1.39;100.00;103536.22;10498671;28;20040;-81
2023/01/25 06:27:09;;;;;;;65.57;32.53;;;;;;;-1.39;100.00;103536.22;10500176;28;20049;-82
2023/01/25 06:32:10;;;;;;;72.83;34.93;;;;;;;-1.38;100.00;103536.13;10485761;28;20060;-81
2023/01/25 06:37:10;;;;;;;69.93;33.63;;;;;;;-1.34;100.00;103534.06;10478708;28;20032;-76
2023/01/25 06:42:11;;;;;;;67.27;31.80;;;;;;;-1.33;100.00;103519.56;10498550;28;20093;-81
2023/01/25 06:47:11;;;;;;;69.83;34.40;;;;;;;-1.34;100.00;103496.25;10497657;28;20040;-83
2023/01/25 06:52:12;;;;;;;70.70;32.60;;;;;;;-1.26;100.00;103510.03;10487248;28;20048;-83
2023/01/25 06:57:12;;;;;;;74.60;36.33;;;;;;;-1.26;100.00;103520.84;10497743;28;20040;-82
2023/01/25 07:02:16;;;;;;;70.90;33.23;;;;;;;-1.34;100.00;103507.06;10499146;28;20037;-82
2023/01/25 07:07:16;;;;;;;63.70;31.37;;;;;;;-1.38;100.00;103510.94;10497141;28;20610;-82
2023/01/25 07:12:18;;;;;;;69.87;34.13;;;;;;;-1.38;100.00;103505.53;10497569;28;20052;-82
2023/01/25 07:17:19;;;;;;;73.83;35.67;;;;;;;-1.39;100.00;103493.84;10472717;28;20033;-83
2023/01/25 07:22:19;;;;;;;70.17;32.47;;;;;;;-1.47;100.00;103472.81;10457107;28;20083;-83
2023/01/25 07:27:20;;;;;;;74.53;33.17;;;;;;;-1.44;100.00;103480.69;10493608;28;20037;-83
2023/01/25 07:32:20;;;;;;;77.47;36.53;;;;;;;-1.79;100.00;103428.34;10488348;28;20040;-83
2023/01/25 07:37:21;;;;;;;72.67;33.67;;;;;;;-1.36;100.00;103498.19;10475014;28;20025;-82
2023/01/25 07:42:21;;;;;;;74.43;34.70;;;;;;;-1.51;100.00;103479.41;10494659;28;20062;-83
2023/01/25 07:47:22;;;;;;;66.10;30.67;;;;;;;-1.40;100.00;103491.28;10495627;28;20032;-83
2023/01/25 07:52:22;;;;;;;69.97;34.93;;;;;;;-1.44;100.00;103502.28;10448463;28;20041;-80
2023/01/25 07:57:23;;;;;;;69.93;33.00;;;;;;;-1.39;100.00;103487.59;10497332;28;20056;-84
2023/01/25 08:02:23;;;;;;;71.70;34.67;;;;;;;-1.44;100.00;103475.28;10503642;28;20039;-84
2023/01/25 08:07:24;;;;;;;72.63;34.17;;;;;;;-1.60;100.00;103471.94;10503479;28;20040;-82
2023/01/25 08:12:26;;;;;;;75.97;35.90;;;;;;;-1.45;100.00;103470.84;10504993;28;20036;-83
2023/01/25 08:17:30;;;;;;;69.00;35.00;;;;;;;-1.40;100.00;103469.66;10491859;28;20094;-83
2023/01/25 08:22:31;;;;;;;67.23;32.77;;;;;;;-1.39;100.00;103464.13;10475007;28;20059;-84
2023/01/25 08:27:31;;;;;;;67.97;31.77;;;;;;;-1.40;100.00;103459.72;10503043;28;20048;-80
2023/01/25 08:32:32;;;;;;;61.90;30.17;;;;;;;-1.42;100.00;103458.97;10460880;28;20098;-82
2023/01/25 08:37:32;;;;;;;59.93;30.53;;;;;;;-1.41;100.00;103452.56;10444501;28;20044;-83
2023/01/25 08:42:33;;;;;;;65.03;30.47;;;;;;;-1.40;100.00;103448.03;10480862;28;20059;-84
2023/01/25 08:47:33;;;;;;;64.17;30.30;;;;;;;-1.44;100.00;103442.84;10502489;28;20079;-84
2023/01/25 08:52:33;;;;;;;55.57;27.53;;;;;;;-1.41;100.00;103425.53;10492629;28;20075;-83
2023/01/25 08:57:34;;;;;;;57.87;27.90;;;;;;;-1.32;100.00;103424.03;10500734;28;20514;-83
2023/01/25 09:02:34;;;;;;;61.40;28.27;;;;;;;-1.42;100.00;103418.44;10482462;28;20059;-83
2023/01/25 09:07:37;;;;;;;57.00;28.60;;;;;;;-1.54;100.00;103427.44;10461289;28;20490;-85
2023/01/25 09:12:37;;;;;;;59.07;29.37;;;;;;;-1.44;100.00;103417.66;10481509;28;20041;-84
2023/01/25 09:17:38;;;;;;;58.67;29.57;;;;;;;-1.39;100.00;103422.72;10500651;28;20041;-83
2023/01/25 09:22:39;;;;;;;60.43;29.03;;;;;;;-1.37;100.00;103415.38;10502903;28;20061;-83
2023/01/25 09:27:40;;;;;;;58.70;27.17;;;;;;;-1.28;100.00;103415.56;10502546;28;20132;-84
2023/01/25 09:32:40;;;;;;;63.50;30.43;;;;;;;-1.40;100.00;103402.09;10502072;28;20074;-84
2023/01/25 09:37:40;;;;;;;56.13;28.10;;;;;;;-1.40;100.00;103392.16;10500122;28;20047;-83
2023/01/25 09:42:50;;;;;;;60.07;29.13;;;;;;;-1.42;100.00;103386.84;10486311;28;20033;-81
2023/01/25 09:47:59;;;;;;;66.07;30.83;;;;;;;-1.44;100.00;103363.63;10499577;28;20476;-83
2023/01/25 09:53:20;;;;;;;64.35;29.27;;;;;;;-1.39;100.00;103390.31;10456578;28;20068;-83
2023/01/25 09:58:24;;;;;;;58.47;28.87;;;;;;;-1.48;100.00;103381.03;10472532;28;20049;-82
2023/01/25 10:03:43;;;;;;;58.73;28.47;;;;;;;-1.89;100.00;103280.47;10472596;28;20051;-84
2023/01/25 10:09:20;;;;;;;64.90;30.63;;;;;;;-1.52;100.00;103361.50;10472547;28;20052;-83
2023/01/25 10:14:21;;;;;;;56.85;28.17;;;;;;;-1.40;100.00;103361.56;10450757;28;20041;-84
2023/01/25 10:19:51;;;;;;;60.40;29.90;;;;;;;-1.38;100.00;103357.78;10461291;28;20064;-83
2023/01/25 10:25:06;;;;;;;59.67;27.60;;;;;;;-1.27;100.00;103343.44;10451169;28;20128;-84
2023/01/25 10:30:27;;;;;;;61.67;29.10;;;;;;;-1.35;100.00;103348.56;10444828;28;20398;-82
2023/01/25 10:35:30;;;;;;;60.07;27.63;;;;;;;-1.55;100.00;103345.53;10500696;28;20043;-82
2023/01/25 10:40:38;;;;;;;58.07;28.23;;;;;;;-1.58;100.00;103326.81;10433865;28;20040;-84
2023/01/25 10:45:38;;;;;;;53.93;25.37;;;;;;;-1.62;100.00;103298.31;10439056;28;20473;-83
2023/01/25 10:50:41;;;;;;;59.40;29.57;;;;;;;-1.37;100.00;103308.13;10472498;28;20347;-85
2023/01/25 10:56:18;;;;;;;58.33;27.70;;;;;;;-1.27;100.00;103300.19;10487705;28;20037;-83
2023/01/25 11:01:27;;;;;;;65.50;30.15;;;;;;;-1.27;100.00;103292.09;10494327;28;20075;-84
2023/01/25 11:06:30;;;;;;;58.80;28.80;;;;;;;-1.21;100.00;103275.41;10499478;28;20036;-85
2023/01/25 11:11:31;;;;;;;70.35;31.13;;;;;;;-1.36;100.00;103273.91;10496970;28;20039;-83
2023/01/25 11:16:37;;;;;;;61.17;29.30;;;;;;;-1.35;100.00;103244.03;10461946;28;20127;-83
2023/01/25 11:21:38;;;;;;;60.63;30.10;;;;;;;-1.31;100.00;103252.78;10476762;28;20167;-78
2023/01/25 11:26:39;;;;;;;67.87;30.43;;;;;;;-1.31;100.00;103244.66;10438402;28;20480;-83
2023/01/25 11:31:40;;;;;;;69.70;31.30;;;;;;;-1.18;100.00;103231.91;10460932;28;20047;-82
2023/01/25 11:36:49;;;;;;;61.43;27.50;;;;;;;-1.18;100.00;103225.66;10503979;28;20090;-81
2023/01/25 11:41:54;;;;;;;65.37;28.87;;;;;;;-1.28;100.00;103204.75;10502753;28;20372;-82
2023/01/25 11:46:58;;;;;;;69.25;30.90;;;;;;;-1.34;100.00;103201.66;10504562;28;20044;-83
2023/01/25 11:52:16;;;;;;;55.60;26.90;;;;;;;-1.68;100.00;103177.22;10498687;28;20047;-83
2023/01/25 11:57:44;;;;;;;58.30;27.17;;;;;;;-1.52;100.00;103174.22;10497527;28;20040;-83
2023/01/25 12:02:50;;;;;;;56.60;26.40;;;;;;;-1.44;100.00;103160.97;10461333;28;20037;-84
2023/01/25 12:08:03;;;;;;;61.43;28.10;;;;;;;-1.41;100.00;103139.13;10463676;28;20074;-83
2023/01/25 12:13:10;;;;;;;54.87;24.60;;;;;;;-1.39;100.00;103134.44;10476462;28;20029;-82
2023/01/25 12:18:28;;;;;;;64.53;25.90;;;;;;;-1.26;100.00;103115.44;10503220;28;20036;-83
2023/01/25 12:23:35;;;;;;;52.43;25.93;;;;;;;-1.28;100.00;103101.16;10468617;28;20063;-83
2023/01/25 12:28:50;;;;;;;62.50;27.20;;;;;;;-1.31;100.00;103106.84;10444370;28;20404;-83
2023/01/25 12:33:57;;;;;;;57.00;26.93;;;;;;;-1.32;100.00;103095.19;10461367;28;20064;-82
2023/01/25 12:39:05;;;;;;;56.23;27.37;;;;;;;-1.36;100.00;103087.44;10490737;28;20036;-83
2023/01/25 12:44:24;;;;;;;56.73;22.63;;;;;;;-1.42;100.00;103092.31;10502322;28;20120;-85
2023/01/25 12:49:39;;;;;;;57.73;25.13;;;;;;;-1.37;100.00;103070.34;10502142;28;20041;-85
2023/01/25 12:54:40;;;;;;;56.23;23.77;;;;;;;-1.45;100.00;103052.06;10491426;28;20040;-85
2023/01/25 12:59:53;;;;;;;56.73;25.00;;;;;;;-1.28;100.00;103033.59;10502363;28;20037;-87
2023/01/25 13:05:13;;;;;;;55.57;25.70;;;;;;;-1.33;100.00;103030.44;10502293;28;20037;-87
2023/01/25 13:10:24;;;;;;;59.33;24.97;;;;;;;-1.50;100.00;103032.63;10503737;28;20051;-81
2023/01/25 13:15:35;;;;;;;58.17;25.53;;;;;;;-1.45;100.00;103033.16;10474788;28;20037;-84
2023/01/25 13:20:39;;;;;;;54.57;24.83;;;;;;;-1.51;100.00;103022.81;10459980;28;20389;-84
2023/01/25 13:25:39;;;;;;;52.23;23.43;;;;;;;-1.45;100.00;103011.53;10459513;28;20131;-84
2023/01/25 13:30:50;;;;;;;57.37;25.47;;;;;;;-1.43;100.00;103001.47;10443201;28;20150;-83
2023/01/25 13:35:52;;;;;;;62.57;25.03;;;;;;;-1.37;100.00;102972.22;10495377;28;20107;-84
2023/01/25 13:41:15;;;;;;;53.42;25.10;;;;;;;-1.13;100.00;102989.13;10474011;28;20048;-85
2023/01/25 13:46:17;;;;;;;55.60;23.47;;;;;;;-1.19;100.00;102989.63;10492703;28;20060;-80
2023/01/25 13:51:18;;;;;;;56.97;23.60;;;;;;;-1.16;100.00;102965.03;10480122;28;20051;-85
2023/01/25 13:56:24;;;;;;;52.13;25.53;;;;;;;-1.18;100.00;102958.91;10459362;28;20048;-70
2023/01/25 14:01:24;;;;;;;;;;;;;;;-1.12;100.00;102954.84;10463252;28;20100;-87
2023/01/25 14:06:30;;;;;;;59.73;24.27;;;;;;;-1.11;100.00;102943.91;10479270;28;19916;-87
2023/01/25 14:11:31;;;;;;;64.53;25.10;;;;;;;-1.05;100.00;102954.22;10477839;28;20057;-87
2023/01/25 14:16:31;;;;;;;59.90;25.00;;;;;;;-1.15;100.00;102942.44;10442954;28;20033;-87
2023/01/25 14:21:32;;;;;;;56.53;23.23;;;;;;;-1.00;100.00;102947.59;10497876;28;20432;-87
2023/01/25 14:26:33;;;;;;;66.67;26.93;;;;;;;-0.98;100.00;102940.19;10477380;28;20040;-87
2023/01/25 14:31:34;;;;;;;66.23;26.77;;;;;;;-1.08;100.00;102938.25;10472659;28;20048;-86
2023/01/25 14:36:35;;;;;;;63.20;27.30;;;;;;;-1.17;100.00;102936.31;10442734;28;20044;-85
2023/01/25 14:41:45;;;;;;;69.20;26.73;;;;;;;-1.26;100.00;102915.44;10499476;28;20549;-87
2023/01/25 14:46:45;;;;;;;69.23;27.97;;;;;;;-1.31;100.00;102909.56;10480964;28;20055;-88
2023/01/25 14:52:02;;;;;;;64.70;27.27;;;;;;;-1.16;100.00;102920.94;10500039;28;20055;-86
2023/01/25 14:57:03;;;;;;;;;;;;;;;-1.15;100.00;102909.16;10497737;28;20037;-87
2023/01/25 15:02:13;;;;;;;72.40;28.47;;;;;;;-1.20;100.00;102897.88;10457785;28;20339;-88
2023/01/25 15:07:33;;;;;;;69.60;28.03;;;;;;;-1.38;100.00;102860.56;10477813;28;20056;-88
2023/01/25 15:12:34;;;;;;;81.83;29.97;;;;;;;-1.28;100.00;102875.03;10493693;28;20067;-83
2023/01/25 15:17:44;;;;;;;78.97;28.90;;;;;;;-1.38;100.00;102846.22;10482981;28;20036;-87
2023/01/25 15:22:45;;;;;;;74.07;26.40;;;;;;;-1.19;100.00;102850.94;10489397;28;20461;-88
2023/01/25 15:27:46;;;;;;;80.13;27.20;;;;;;;-1.18;100.00;102871.56;10476777;28;20041;-88
2023/01/25 15:32:46;;;;;;;76.80;29.03;;;;;;;-1.29;100.00;102861.66;10469892;28;20037;-88
2023/01/25 15:37:47;;;;;;;80.77;30.20;;;;;;;-1.26;100.00;102883.00;10481305;28;20535;-89
2023/01/25 15:42:47;;;;;;;91.47;33.10;;;;;;;-1.31;100.00;102882.53;10461282;28;20041;-79
2023/01/25 15:47:48;;;;;;;83.93;30.85;;;;;;;-1.35;100.00;102859.47;10461413;28;20492;-79
2023/01/25 15:52:48;;;;;;;88.75;33.15;;;;;;;-1.27;100.00;102892.13;10474240;28;20049;-81
2023/01/25 15:57:49;;;;;;;90.07;32.23;;;;;;;-1.25;100.00;102885.59;10460386;28;20041;-79
2023/01/25 16:02:49;;;;;;;82.80;30.80;;;;;;;-1.29;100.00;102885.97;10459994;28;20450;-77
2023/01/25 16:07:50;;;;;;;90.53;33.13;;;;;;;-1.26;100.00;102885.72;10454620;28;20041;-79
2023/01/25 16:12:50;;;;;;;99.30;32.07;;;;;;;-1.30;100.00;102892.34;10457389;28;20377;-79
2023/01/25 16:17:51;;;;;;;93.47;34.03;;;;;;;-1.31;100.00;102874.44;10458199;28;20408;-80
2023/01/25 16:22:51;;;;;;;88.90;32.53;;;;;;;-1.42;100.00;102854.56;10466222;28;20040;-78
2023/01/25 16:27:51;;;;;;;94.30;32.57;;;;;;;-1.34;100.00;102856.63;10458344;28;20044;-79
2023/01/25 16:32:52;;;;;;;92.45;31.77;;;;;;;-1.41;100.00;102868.91;10481819;28;20037;-79
2023/01/25 16:37:53;;;;;;;83.27;32.20;;;;;;;-1.38;100.00;102852.47;10484956;28;20122;-81
2023/01/25 16:42:53;;;;;;;92.83;31.87;;;;;;;-1.36;100.00;102841.53;10472192;28;20056;-80
2023/01/25 16:47:53;;;;;;;95.70;32.37;;;;;;;-1.35;100.00;102829.75;10461416;28;20439;-80
2023/01/25 16:52:55;;;;;;;95.37;29.83;;;;;;;-1.37;100.00;102812.78;10456643;28;20527;-79
2023/01/25 16:57:55;;;;;;;98.37;34.20;;;;;;;-1.51;100.00;102793.22;10468853;28;20052;-82
2023/01/25 17:02:56;;;;;;;89.33;31.70;;;;;;;-1.35;100.00;102802.72;10473921;28;20032;-80
2023/01/25 17:07:56;;;;;;;92.40;32.97;;;;;;;-1.34;100.00;102794.50;10458639;28;20044;-79
2023/01/25 17:12:56;;;;;;;98.67;32.40;;;;;;;-1.33;100.00;102773.72;10479570;28;20053;-78
2023/01/25 17:17:57;;;;;;;99.57;33.83;;;;;;;-1.32;100.00;102765.50;10478977;28;20033;-80
2023/01/25 17:22:57;;;;;;;96.50;32.03;;;;;;;-1.29;100.00;102740.91;10481460;28;20040;-80
2023/01/25 17:27:58;;;;;;;99.10;35.57;;;;;;;-1.33;100.00;102734.03;10479905;28;20480;-79
2023/01/25 17:32:58;;;;;;;88.43;30.83;;;;;;;-1.38;100.00;102705.72;10468117;28;20546;-80
2023/01/25 17:37:59;;;;;;;87.53;29.90;;;;;;;-1.29;100.00;102704.91;10462420;28;20381;-81
2023/01/25 17:42:59;;;;;;;97.97;33.47;;;;;;;-1.30;100.00;102687.84;10501702;28;20033;-80
2023/01/25 17:48:00;;;;;;;100.10;34.33;;;;;;;-1.34;100.00;102680.16;10495972;28;20025;-81
2023/01/25 17:53:01;;;;;;;90.30;32.00;;;;;;;-1.47;100.00;102670.41;10492330;28;20087;-80
2023/01/25 17:58:01;;;;;;;102.93;31.90;;;;;;;-1.36;100.00;102687.53;10496859;28;20071;-79
2023/01/25 18:03:02;;;;;;;116.60;35.22;;;;;;;-1.37;100.00;102658.78;10499459;28;20040;-80
2023/01/25 18:08:02;;;;;;;111.90;35.00;;;;;;;-1.43;100.00;102677.25;10499150;28;20024;-80
2023/01/25 18:13:04;;;;;;;106.37;35.10;;;;;;;-1.34;100.00;102666.66;10477041;28;20105;-80
2023/01/25 18:18:04;;;;;;;118.50;36.87;;;;;;;-1.35;100.00;102659.50;10459661;28;20077;-79
2023/01/25 18:23:05;;;;;;;114.32;36.72;;;;;;;-1.34;100.00;102653.13;10456403;28;20398;-80
2023/01/25 18:28:05;;;;;;;117.17;36.23;;;;;;;-1.52;100.00;102618.59;10457418;28;20048;-80
2023/01/25 18:33:06;;;;;;;118.97;35.97;;;;;;;-1.27;100.00;102638.94;10421780;28;20045;-80
2023/01/25 18:38:07;;;;;;;127.07;36.67;;;;;;;-1.27;100.00;102616.47;10460308;28;20060;-79
2023/01/25 18:43:10;;;;;;;127.73;37.07;;;;;;;-1.23;100.00;102629.56;10454061;28;20041;-73
2023/01/25 18:48:15;;;;;;;129.43;38.47;;;;;;;-1.30;100.00;102612.19;10457736;28;20143;-80
2023/01/25 18:53:16;;;;;;;119.07;40.30;;;;;;;-1.22;100.00;102641.22;10458687;28;20040;-82
2023/01/25 18:58:16;;;;;;;123.28;38.78;;;;;;;-1.20;100.00;102628.44;10491890;28;20041;-81
2023/01/25 19:03:17;;;;;;;124.63;40.03;;;;;;;-1.29;100.00;102630.09;10496681;28;20048;-80
2023/01/25 19:08:18;;;;;;;117.87;37.77;;;;;;;-1.32;100.00;102630.38;10490240;28;20048;-81
2023/01/25 19:13:19;;;;;;;121.97;41.17;;;;;;;-1.99;100.00;102522.78;10453599;28;20056;-81
2023/01/25 19:18:20;;;;;;;122.43;40.00;;;;;;;-1.36;100.00;102623.53;10449030;28;20060;-81
2023/01/25 19:23:20;;;;;;;127.87;42.97;;;;;;;-1.34;100.00;102615.31;10437582;28;20048;-78
2023/01/25 19:28:22;;;;;;;132.00;41.20;;;;;;;-1.41;100.00;102585.25;10455093;28;20040;-82
2023/01/25 19:33:23;;;;;;;131.07;39.17;;;;;;;-1.28;100.00;102610.22;10452933;28;20041;-82
2023/01/25 19:38:23;;;;;;;128.13;41.53;;;;;;;-1.37;100.00;102600.19;10455209;28;20056;-81
2023/01/25 19:43:24;;;;;;;140.63;39.27;;;;;;;-1.37;100.00;102583.13;10457927;28;20071;-80
2023/01/25 19:48:26;;;;;;;133.90;39.50;;;;;;;-1.53;100.00;102570.09;10439941;28;20061;-82
2023/01/25 19:53:27;;;;;;;146.73;43.47;;;;;;;-1.42;100.00;102587.09;10481658;28;20120;-83
2023/01/25 19:58:27;;;;;;;140.10;40.13;;;;;;;-1.42;100.00;102580.84;10471623;28;20064;-81
2023/01/25 20:03:28;;;;;;;130.83;40.00;;;;;;;-1.42;100.00;102565.47;10465497;28;20071;-81
2023/01/25 20:08:29;;;;;;;136.03;43.10;;;;;;;-1.54;100.00;102544.94;10461412;28;20083;-81
2023/01/25 20:13:30;;;;;;;141.15;41.20;;;;;;;-1.52;100.00;102561.88;10443451;28;20464;-81
2023/01/25 20:18:31;;;;;;;147.80;44.93;;;;;;;-1.42;100.00;102557.38;10448447;28;20076;-80
2023/01/25 20:23:33;;;;;;;130.30;39.03;;;;;;;-1.37;100.00;102551.56;10487034;28;20032;-82
2023/01/25 20:28:34;;;;;;;140.07;41.20;;;;;;;-1.48;100.00;102541.69;10474392;28;20041;-78
2023/01/25 20:33:34;;;;;;;148.27;44.33;;;;;;;-1.35;100.00;102559.53;10480467;28;20071;-75
2023/01/25 20:38:35;;;;;;;133.33;41.83;;;;;;;-1.35;100.00;102551.44;10458672;28;20037;-80
2023/01/25 20:43:35;;;;;;;147.60;43.03;;;;;;;-1.44;100.00;102540.44;10458413;28;20036;-80
2023/01/25 20:48:36;;;;;;;138.23;41.57;;;;;;;-1.45;100.00;102543.28;10484267;28;20037;-79
2023/01/25 20:53:37;;;;;;;136.03;39.77;;;;;;;-1.40;100.00;102553.69;10457630;28;20041;-79
2023/01/25 20:58:37;;;;;;;156.47;45.83;;;;;;;-1.46;100.00;102519.97;10442024;28;20041;-79
2023/01/25 21:03:38;;;;;;;138.43;41.27;;;;;;;-1.35;100.00;102546.88;10463467;28;20044;-79
2023/01/25 21:08:38;;;;;;;153.83;42.77;;;;;;;-1.46;100.00;102515.41;10465516;28;20033;-78
2023/01/25 21:13:39;;;;;;;131.07;39.13;;;;;;;-1.45;100.00;102521.66;10456211;28;20076;-79
2023/01/25 21:18:41;;;;;;;139.80;43.73;;;;;;;-1.59;100.00;102498.59;10425057;28;20052;-78
2023/01/25 21:23:43;;;;;;;138.85;41.97;;;;;;;-1.30;100.00;102541.06;10469383;28;20506;-78
2023/01/25 21:28:44;;;;;;;151.85;42.90;;;;;;;-1.37;100.00;102518.28;10441998;28;20460;-76
2023/01/25 21:33:45;;;;;;;139.77;41.43;;;;;;;-1.25;100.00;102525.31;10456402;28;20028;-78
2023/01/25 21:38:50;;;;;;;139.37;39.30;;;;;;;-1.29;100.00;102504.97;10457260;28;20187;-78
2023/01/25 21:54:34;;;;;;;146.40;41.95;;;;;;;-1.33;100.00;102508.94;10477853;28;20040;-80
2023/01/25 21:59:35;;;;;;;139.30;39.63;;;;;;;-1.31;100.00;102507.78;10467335;28;20033;-79
2023/01/25 22:04:36;;;;;;;142.13;40.60;;;;;;;-1.23;100.00;102516.06;10464655;28;20090;-79
2023/01/25 22:09:37;;;;;;;153.63;42.33;;;;;;;-1.19;100.00;102516.66;10456633;28;20202;-78
2023/01/25 22:14:37;;;;;;;135.33;37.40;;;;;;;-1.24;100.00;102500.88;10457282;28;20071;-77
2023/01/25 22:19:38;;;;;;;141.43;40.90;;;;;;;-1.20;100.00;102493.31;10456409;28;20132;-79
2023/01/25 22:24:38;;;;;;;122.53;36.88;;;;;;;-1.17;100.00;102490.34;10456705;28;20087;-78
2023/01/25 22:29:39;;;;;;;132.93;37.97;;;;;;;-1.15;100.00;102493.78;10477496;28;20044;-78
2023/01/25 22:34:39;;;;;;;113.93;35.30;;;;;;;-1.12;100.00;102489.94;10498860;28;20040;-79